createdAt,value
2019-03-13T00:03:59.023Z,68.60
2019-03-13T00:08:01.741Z,67.20
2019-03-13T00:12:04.623Z,66.90
2019-03-13T00:16:06.625Z,67.00
2019-03-13T00:20:11.006Z,67.20
2019-03-13T00:24:13.032Z,68.70
2019-03-13T00:28:14.919Z,69.70
2019-03-13T00:32:16.881Z,67.70
2019-03-13T00:36:18.863Z,66.40
2019-03-13T00:40:20.856Z,69.20
2019-03-13T00:44:22.852Z,67.50
2019-03-13T00:48:24.775Z,70.90
2019-03-13T00:52:26.741Z,67.30
2019-03-13T00:56:28.660Z,66.30
2019-03-13T01:00:48.292Z,63.80
2019-03-13T01:04:51.840Z,65.40
2019-03-13T01:08:53.753Z,65.60
2019-03-13T01:12:55.631Z,67.80
2019-03-13T01:16:57.537Z,68.00
2019-03-13T01:20:59.515Z,70.40
2019-03-13T01:25:01.653Z,72.00
2019-03-13T01:29:03.559Z,68.00
2019-03-13T01:33:07.087Z,71.70
2019-03-13T01:37:08.997Z,73.80
2019-03-13T01:41:10.883Z,74.30
2019-03-13T01:45:13.120Z,75.00
2019-03-13T01:49:15.031Z,74.90
2019-03-13T01:53:16.931Z,75.40
2019-03-13T01:57:18.841Z,74.50
2019-03-13T02:01:20.746Z,70.30
2019-03-13T02:05:22.649Z,68.30
2019-03-13T02:09:24.555Z,67.00
2019-03-13T02:13:26.448Z,68.00
2019-03-13T02:17:28.359Z,65.40
2019-03-13T02:21:30.258Z,64.50
2019-03-13T02:25:32.860Z,64.30
2019-03-13T02:29:34.772Z,63.70
2019-03-13T02:33:36.692Z,63.90
2019-03-13T02:37:38.603Z,63.50
2019-03-13T02:41:40.473Z,63.10
2019-03-13T02:45:42.377Z,63.70
2019-03-13T02:49:44.280Z,68.20
2019-03-13T02:53:46.181Z,70.50
2019-03-13T02:57:48.089Z,74.00
2019-03-13T03:01:51.785Z,81.60
2019-03-13T03:05:53.686Z,85.70
2019-03-13T03:09:55.599Z,89.00
2019-03-13T03:13:57.541Z,89.20
2019-03-13T03:17:59.438Z,89.70
2019-03-13T03:22:01.772Z,90.60
2019-03-13T03:26:03.669Z,90.70
2019-03-13T03:30:09.822Z,91.20
2019-03-13T03:34:11.816Z,91.40
2019-03-13T03:38:13.812Z,91.20
2019-03-13T03:42:16.140Z,91.10
2019-03-13T03:46:18.081Z,90.80
2019-03-13T03:50:20.194Z,90.50
2019-03-13T03:54:22.103Z,90.50
2019-03-13T03:58:24.015Z,90.60
2019-03-13T04:02:25.933Z,90.40
2019-03-13T04:06:28.012Z,90.20
2019-03-13T04:10:31.001Z,89.80
2019-03-13T04:14:32.940Z,90.10
2019-03-13T04:18:34.838Z,89.50
2019-03-13T04:22:36.814Z,88.20
2019-03-13T04:26:38.764Z,87.40
2019-03-13T04:30:40.728Z,87.20
2019-03-13T04:34:42.637Z,86.70
2019-03-13T04:38:44.549Z,86.00
2019-03-13T04:42:46.453Z,86.60
2019-03-13T04:46:48.352Z,86.20
2019-03-13T04:50:50.254Z,86.30
2019-03-13T04:54:52.154Z,86.30
2019-03-13T04:58:54.042Z,86.80
2019-03-13T05:02:55.952Z,87.60
2019-03-13T05:06:57.850Z,87.40
2019-03-13T05:10:59.762Z,87.50
2019-03-13T05:15:01.673Z,87.70
2019-03-13T05:19:03.721Z,87.40
2019-03-13T05:23:05.625Z,88.30
2019-03-13T05:27:07.589Z,87.80
2019-03-13T05:31:28.083Z,87.40
2019-03-13T05:35:37.272Z,87.20
2019-03-13T05:39:39.176Z,87.50
2019-03-13T05:43:41.070Z,87.70
2019-03-13T05:47:43.043Z,87.70
2019-03-13T05:51:45.009Z,88.00
2019-03-13T05:55:47.086Z,87.70
2019-03-13T05:59:48.992Z,87.90
2019-03-13T06:03:50.911Z,87.80
2019-03-13T06:07:52.822Z,88.30
2019-03-13T06:11:54.721Z,87.60
2019-03-13T06:15:56.647Z,87.50
2019-03-13T06:20:00.461Z,87.30
2019-03-13T06:24:02.411Z,87.20
2019-03-13T06:28:04.310Z,86.70
2019-03-13T06:32:06.209Z,86.70
2019-03-13T06:36:08.108Z,86.50
2019-03-13T06:40:16.301Z,85.80
2019-03-13T06:44:18.234Z,84.40
2019-03-13T06:48:20.310Z,82.90
2019-03-13T06:52:22.215Z,82.70
2019-03-13T06:56:24.161Z,81.80
2019-03-13T07:00:28.821Z,82.10
2019-03-13T07:04:48.537Z,80.60
2019-03-13T07:08:54.530Z,80.20
2019-03-13T07:13:04.242Z,77.70
2019-03-13T07:17:07.791Z,78.20
2019-03-13T07:21:27.457Z,76.90
2019-03-13T07:25:29.170Z,75.90
2019-03-13T07:29:35.635Z,76.00
2019-03-13T07:33:55.146Z,75.70
2019-03-13T07:37:58.678Z,76.20
2019-03-13T07:42:07.618Z,74.10
2019-03-13T07:46:16.802Z,75.80
2019-03-13T07:50:20.320Z,74.10
2019-03-13T07:54:26.895Z,74.00
2019-03-13T07:58:39.513Z,73.20
2019-03-13T08:02:58.931Z,72.80
2019-03-13T08:07:17.598Z,73.50
2019-03-13T08:11:30.241Z,71.90
2019-03-13T08:15:41.607Z,69.50
2019-03-13T08:19:43.336Z,69.00
2019-03-13T08:23:45.003Z,65.80
2019-03-13T08:27:54.327Z,68.10
2019-03-13T08:32:09.385Z,66.80
2019-03-13T08:36:15.845Z,66.70
2019-03-13T08:40:35.558Z,65.40
2019-03-13T08:44:45.122Z,64.50
2019-03-13T08:48:57.403Z,61.00
2019-03-13T08:53:02.118Z,59.60
2019-03-13T08:57:06.398Z,58.50
2019-03-13T09:01:26.253Z,56.90
2019-03-13T09:05:45.989Z,56.80
2019-03-13T09:09:52.465Z,55.70
2019-03-13T09:13:56.080Z,55.00
2019-03-13T09:18:08.882Z,55.60
2019-03-13T09:22:18.510Z,55.40
2019-03-13T09:26:22.021Z,55.20
2019-03-13T09:30:35.724Z,55.80
2019-03-13T09:34:51.490Z,54.60
2019-03-13T09:38:55.041Z,53.70
2019-03-13T09:43:01.690Z,55.40
2019-03-13T09:47:14.249Z,55.30
2019-03-13T09:51:18.036Z,54.20
2019-03-13T09:55:37.204Z,54.10
2019-03-13T09:59:55.891Z,53.40
2019-03-13T10:04:11.649Z,53.70
2019-03-13T10:08:28.640Z,54.90
2019-03-13T10:12:34.824Z,55.40
2019-03-13T10:16:41.092Z,56.50
2019-03-13T10:20:53.676Z,56.40
2019-03-13T10:24:57.211Z,55.70
2019-03-13T10:29:12.817Z,55.60
2019-03-13T10:33:32.660Z,56.30
2019-03-13T10:37:45.161Z,56.30
2019-03-13T10:42:03.576Z,56.90
2019-03-13T10:46:19.398Z,57.90
2019-03-13T10:50:39.249Z,55.90
2019-03-13T10:54:48.711Z,55.50
2019-03-13T10:59:10.279Z,55.20
2019-03-13T11:03:19.714Z,54.30
2019-03-13T11:07:40.163Z,53.70
2019-03-13T11:11:43.726Z,53.20
2019-03-13T11:15:50.296Z,53.20
2019-03-13T11:19:57.744Z,53.50
2019-03-13T11:24:13.400Z,54.10
2019-03-13T11:28:29.523Z,53.10
2019-03-13T11:32:42.085Z,52.00
2019-03-13T11:37:02.207Z,51.30
2019-03-13T11:41:05.750Z,51.80
2019-03-13T11:45:28.502Z,52.90
2019-03-13T11:49:48.187Z,52.50
2019-03-13T11:53:54.739Z,52.60
2019-03-13T11:57:56.402Z,51.00
2019-03-13T12:02:16.075Z,52.10
2019-03-13T12:06:19.604Z,53.40
2019-03-13T12:10:25.975Z,52.60
2019-03-13T12:14:35.294Z,53.30
2019-03-13T12:18:44.814Z,53.60
2019-03-13T12:22:54.208Z,55.20
2019-03-13T12:27:05.573Z,56.70
2019-03-13T12:31:09.618Z,55.70
2019-03-13T12:35:25.301Z,56.00
2019-03-13T12:39:37.593Z,54.60
2019-03-13T12:43:44.279Z,52.00
2019-03-13T12:47:53.673Z,52.10
2019-03-13T12:51:57.215Z,52.10
2019-03-13T12:56:09.790Z,53.10
2019-03-13T13:00:21.904Z,53.70
2019-03-13T13:04:25.441Z,54.10
2019-03-13T13:08:28.998Z,54.60
2019-03-13T13:12:35.453Z,55.50
2019-03-13T13:16:48.804Z,53.60
2019-03-13T13:20:50.713Z,53.80
2019-03-13T13:24:52.598Z,53.30
2019-03-13T13:28:54.493Z,54.50
2019-03-13T13:32:56.488Z,54.90
2019-03-13T13:36:58.388Z,55.20
2019-03-13T13:41:00.294Z,56.90
2019-03-13T13:45:02.450Z,55.80
2019-03-13T13:49:05.495Z,54.00
2019-03-13T13:53:07.392Z,51.80
2019-03-13T13:57:09.311Z,48.80
2019-03-13T14:01:11.191Z,49.00
2019-03-13T14:05:13.165Z,49.70
2019-03-13T14:09:15.068Z,51.70
2019-03-13T14:13:16.983Z,51.50
2019-03-13T14:17:18.985Z,52.40
2019-03-13T14:21:20.927Z,51.80
2019-03-13T14:25:23.812Z,52.00
2019-03-13T14:29:25.712Z,53.00
2019-03-13T14:33:27.613Z,53.00
2019-03-13T14:37:29.563Z,52.60
2019-03-13T14:41:31.450Z,52.70
2019-03-13T14:45:33.355Z,52.20
2019-03-13T14:49:35.256Z,53.40
2019-03-13T14:53:37.153Z,52.70
2019-03-13T14:57:39.080Z,53.20
2019-03-13T15:01:40.976Z,52.00
2019-03-13T15:05:42.989Z,52.20
2019-03-13T15:09:44.892Z,53.40
2019-03-13T15:13:46.790Z,52.50
2019-03-13T15:17:48.903Z,53.30
2019-03-13T15:21:50.780Z,53.70
2019-03-13T15:25:52.923Z,53.80
2019-03-13T15:29:54.963Z,53.20
2019-03-13T15:33:56.868Z,54.10
2019-03-13T15:37:58.783Z,55.00
2019-03-13T15:42:00.680Z,54.90
2019-03-13T15:46:02.594Z,56.00
2019-03-13T15:50:06.847Z,56.60
2019-03-13T15:54:08.762Z,56.80
2019-03-13T15:58:10.686Z,57.50
2019-03-13T16:02:12.636Z,57.60
2019-03-13T16:06:14.539Z,59.80
2019-03-13T16:10:18.241Z,63.80
2019-03-13T16:14:20.147Z,64.40
2019-03-13T16:18:22.082Z,65.00
2019-03-13T16:22:23.973Z,64.50
2019-03-13T16:26:25.900Z,65.20
2019-03-13T16:30:30.862Z,63.90
2019-03-13T16:34:33.520Z,64.20
2019-03-13T16:38:35.461Z,63.10
2019-03-13T16:42:37.347Z,60.60
2019-03-13T16:46:39.249Z,60.00
2019-03-13T16:50:41.295Z,60.40
2019-03-13T16:54:43.214Z,60.10
2019-03-13T16:58:45.112Z,59.70
2019-03-13T17:02:46.996Z,60.30
2019-03-13T17:06:48.897Z,60.50
2019-03-13T17:10:50.798Z,59.90
2019-03-13T17:14:52.875Z,60.00
2019-03-13T17:18:54.855Z,61.90
2019-03-13T17:22:56.758Z,63.00
2019-03-13T17:26:58.647Z,63.60
2019-03-13T17:31:00.547Z,63.10
2019-03-13T17:35:02.443Z,62.70
2019-03-13T17:39:06.739Z,63.60
2019-03-13T17:43:10.222Z,63.50
2019-03-13T17:47:12.131Z,64.80
2019-03-13T17:51:14.041Z,65.70
2019-03-13T17:55:20.575Z,67.90
2019-03-13T17:59:22.476Z,68.00
2019-03-13T18:03:25.504Z,69.70
2019-03-13T18:07:27.407Z,70.10
2019-03-13T18:11:29.309Z,70.60
2019-03-13T18:15:31.205Z,72.10
2019-03-13T18:19:33.661Z,74.70
2019-03-13T18:23:35.631Z,76.10
2019-03-13T18:27:37.653Z,77.70
2019-03-13T18:31:39.594Z,77.90
2019-03-13T18:35:43.042Z,77.20
2019-03-13T18:39:44.947Z,76.90
2019-03-13T18:43:46.845Z,77.80
2019-03-13T18:47:48.741Z,79.20
2019-03-13T18:51:50.654Z,79.70
2019-03-13T18:55:52.575Z,80.50
2019-03-13T18:59:54.545Z,81.40
2019-03-13T19:03:56.424Z,83.20
2019-03-13T19:07:59.116Z,84.90
2019-03-13T19:12:01.595Z,84.70
2019-03-13T19:16:03.494Z,85.70
2019-03-13T19:20:11.842Z,85.70
2019-03-13T19:24:13.047Z,88.30
2019-03-13T19:28:14.943Z,87.70
2019-03-13T19:32:16.855Z,88.40
2019-03-13T19:36:18.777Z,89.80
2019-03-13T19:40:22.479Z,88.20
2019-03-13T19:44:24.542Z,89.80
2019-03-13T19:48:26.578Z,90.00
2019-03-13T19:52:28.589Z,90.30
2019-03-13T19:56:30.478Z,90.40
2019-03-13T20:00:34.079Z,90.40
2019-03-13T20:04:46.801Z,90.00
2019-03-13T20:08:39.648Z,89.30
2019-03-13T20:12:42.539Z,90.00
2019-03-13T20:16:46.607Z,90.00
2019-03-13T20:20:48.171Z,89.30
2019-03-13T20:24:50.068Z,89.80
2019-03-13T20:28:51.957Z,88.60
2019-03-13T20:32:53.948Z,87.50
2019-03-13T20:36:58.569Z,87.40
2019-03-13T20:40:59.590Z,86.80
2019-03-13T20:45:01.554Z,86.30
2019-03-13T20:49:04.629Z,85.80
2019-03-13T20:53:06.601Z,86.20
2019-03-13T20:57:08.502Z,86.60
2019-03-13T21:01:10.542Z,87.00
2019-03-13T21:05:12.602Z,86.60
2019-03-13T21:09:14.608Z,87.10
2019-03-13T21:13:16.677Z,86.50
2019-03-13T21:17:18.595Z,86.30
2019-03-13T21:21:20.539Z,86.20
2019-03-13T21:25:25.011Z,86.90
2019-03-13T21:29:26.909Z,87.70
2019-03-13T21:33:28.811Z,88.30
2019-03-13T21:37:30.785Z,88.30
2019-03-13T21:41:35.541Z,90.00
2019-03-13T21:45:41.412Z,90.20
2019-03-13T21:49:42.073Z,90.70
2019-03-13T21:53:43.954Z,91.20
2019-03-13T21:57:45.853Z,91.60
2019-03-13T22:01:47.878Z,92.00
2019-03-13T22:05:49.816Z,92.30
2019-03-13T22:09:51.719Z,92.60
2019-03-13T22:13:53.663Z,92.50
2019-03-13T22:17:56.383Z,92.60
2019-03-13T22:21:58.293Z,92.90
2019-03-13T22:26:00.175Z,92.80
2019-03-13T22:30:02.069Z,92.70
2019-03-13T22:34:04.128Z,92.90
2019-03-13T22:38:06.100Z,92.90
2019-03-13T22:42:08.007Z,93.40
2019-03-13T22:46:13.740Z,93.50
2019-03-13T22:50:21.259Z,93.20
2019-03-13T22:54:23.171Z,93.10
2019-03-13T22:58:25.196Z,93.70
2019-03-13T23:02:27.187Z,93.80
2019-03-13T23:06:29.075Z,93.80
2019-03-13T23:10:36.429Z,94.10
2019-03-13T23:14:38.320Z,93.90
2019-03-13T23:18:40.222Z,93.90
2019-03-13T23:22:42.149Z,94.00
2019-03-13T23:26:44.041Z,94.10
2019-03-13T23:30:45.957Z,94.10
2019-03-13T23:34:47.846Z,94.30
2019-03-13T23:38:49.736Z,94.40
2019-03-13T23:42:51.713Z,94.30
2019-03-13T23:46:53.614Z,94.70
2019-03-13T23:50:55.510Z,94.60
2019-03-13T23:54:57.418Z,94.60
2019-03-13T23:58:59.305Z,94.80
